createdAt,value
2019-04-04T00:00:30.827Z,5.57
2019-04-04T00:01:41.577Z,5.56
2019-04-04T00:02:52.349Z,5.55
2019-04-04T00:04:03.071Z,5.53
2019-04-04T00:05:13.818Z,5.51
2019-04-04T00:06:26.704Z,5.50
2019-04-04T00:07:35.783Z,5.49
2019-04-04T00:08:46.527Z,5.48
2019-04-04T00:09:57.258Z,5.48
2019-04-04T00:11:08.022Z,5.47
2019-04-04T00:12:18.761Z,5.46
2019-04-04T00:13:29.498Z,5.45
2019-04-04T00:14:40.240Z,5.41
2019-04-04T00:15:50.979Z,5.38
2019-04-04T00:17:01.721Z,5.36
2019-04-04T00:18:12.463Z,5.34
2019-04-04T00:19:23.191Z,5.35
2019-04-04T00:20:33.926Z,5.34
2019-04-04T00:21:44.674Z,5.34
2019-04-04T00:22:56.409Z,5.33
2019-04-04T00:24:09.231Z,5.30
2019-04-04T00:25:17.885Z,5.29
2019-04-04T00:26:28.621Z,5.28
2019-04-04T00:27:39.357Z,5.28
2019-04-04T00:28:50.573Z,5.27
2019-04-04T00:30:01.317Z,5.27
2019-04-04T00:31:12.045Z,5.27
2019-04-04T00:32:22.788Z,5.27
2019-04-04T00:33:33.518Z,5.28
2019-04-04T00:34:44.253Z,5.28
2019-04-04T00:35:54.974Z,5.29
2019-04-04T00:37:05.714Z,5.29
2019-04-04T00:38:16.435Z,5.29
2019-04-04T00:39:27.170Z,5.28
2019-04-04T00:40:37.899Z,5.29
2019-04-04T00:41:48.629Z,5.29
2019-04-04T00:42:59.369Z,5.29
2019-04-04T00:44:10.087Z,5.30
2019-04-04T00:45:20.820Z,5.30
2019-04-04T00:46:31.578Z,5.30
2019-04-04T00:47:42.300Z,5.30
2019-04-04T00:48:53.029Z,5.29
2019-04-04T00:50:06.096Z,5.29
2019-04-04T00:51:15.073Z,5.29
2019-04-04T00:52:25.735Z,5.29
2019-04-04T00:53:36.469Z,5.29
2019-04-04T00:54:47.208Z,5.28
2019-04-04T00:55:57.920Z,5.29
2019-04-04T00:57:08.652Z,5.29
2019-04-04T00:58:20.852Z,5.29
2019-04-04T00:59:30.196Z,5.29
2019-04-04T01:00:40.921Z,5.29
2019-04-04T01:01:51.644Z,5.28
2019-04-04T01:03:02.897Z,5.28
2019-04-04T01:04:14.629Z,5.27
2019-04-04T01:05:25.470Z,5.28
2019-04-04T01:06:36.208Z,5.28
2019-04-04T01:07:46.926Z,5.27
2019-04-04T01:08:57.660Z,5.28
2019-04-04T01:10:08.387Z,5.27
2019-04-04T01:11:20.408Z,5.27
2019-04-04T01:12:29.851Z,5.26
2019-04-04T01:13:40.575Z,5.26
2019-04-04T01:14:51.297Z,5.25
2019-04-04T01:16:02.936Z,5.25
2019-04-04T01:17:13.259Z,5.24
2019-04-04T01:18:23.989Z,5.24
2019-04-04T01:19:34.719Z,5.24
2019-04-04T01:20:45.455Z,5.23
2019-04-04T01:21:56.189Z,5.24
2019-04-04T01:23:06.925Z,5.24
2019-04-04T01:24:17.867Z,5.24
2019-04-04T01:25:31.895Z,5.24
2019-04-04T01:26:39.322Z,5.25
2019-04-04T01:27:50.559Z,5.24
2019-04-04T01:29:01.292Z,5.25
2019-04-04T01:30:12.701Z,5.25
2019-04-04T01:31:22.745Z,5.25
2019-04-04T01:32:33.471Z,5.26
2019-04-04T01:33:44.206Z,5.26
2019-04-04T01:34:54.929Z,5.26
2019-04-04T01:36:06.657Z,5.27
2019-04-04T01:37:17.386Z,5.26
2019-04-04T01:38:29.162Z,5.26
2019-04-04T01:39:39.360Z,5.26
2019-04-04T01:40:50.062Z,5.25
2019-04-04T01:42:00.809Z,5.25
2019-04-04T01:43:11.541Z,5.25
2019-04-04T01:44:22.276Z,5.25
2019-04-04T01:45:32.997Z,5.24
2019-04-04T01:46:44.034Z,5.25
2019-04-04T01:47:54.460Z,5.26
2019-04-04T01:49:05.200Z,5.25
2019-04-04T01:50:15.916Z,5.25
2019-04-04T01:51:26.638Z,5.24
2019-04-04T01:52:37.371Z,5.24
2019-04-04T01:53:48.098Z,5.24
2019-04-04T01:54:58.834Z,5.24
2019-04-04T01:56:09.566Z,5.24
2019-04-04T01:57:20.778Z,5.24
2019-04-04T01:58:31.528Z,5.22
2019-04-04T01:59:43.930Z,5.23
2019-04-04T02:00:52.983Z,5.23
2019-04-04T02:02:03.713Z,5.23
2019-04-04T02:03:14.439Z,5.24
2019-04-04T02:04:25.418Z,5.26
2019-04-04T02:05:35.896Z,5.26
2019-04-04T02:06:46.631Z,5.27
2019-04-04T02:08:00.552Z,5.27
2019-04-04T02:09:08.104Z,5.27
2019-04-04T02:10:18.845Z,5.29
2019-04-04T02:11:29.581Z,5.30
2019-04-04T02:12:40.312Z,5.30
2019-04-04T02:13:51.047Z,5.29
2019-04-04T02:15:01.771Z,5.31
2019-04-04T02:16:12.496Z,5.32
2019-04-04T02:17:23.228Z,5.33
2019-04-04T02:18:33.965Z,5.34
2019-04-04T02:19:44.696Z,5.34
2019-04-04T02:20:57.534Z,5.35
2019-04-04T02:22:06.164Z,5.34
2019-04-04T02:23:16.893Z,5.35
2019-04-04T02:24:27.627Z,5.36
2019-04-04T02:25:38.465Z,5.35
2019-04-04T02:26:49.190Z,5.35
2019-04-04T02:27:59.912Z,5.34
2019-04-04T02:29:11.091Z,5.35
2019-04-04T02:30:21.386Z,5.35
2019-04-04T02:31:32.107Z,5.34
2019-04-04T02:32:42.837Z,5.35
2019-04-04T02:33:53.561Z,5.35
2019-04-04T02:35:04.300Z,5.36
2019-04-04T02:36:16.713Z,5.35
2019-04-04T02:37:25.754Z,5.35
2019-04-04T02:38:36.471Z,5.36
2019-04-04T02:39:47.216Z,5.37
2019-04-04T02:40:57.941Z,5.36
2019-04-04T02:42:08.673Z,5.37
2019-04-04T02:43:19.405Z,5.38
2019-04-04T02:44:32.221Z,5.39
2019-04-04T02:45:40.865Z,5.38
2019-04-04T02:46:51.601Z,5.39
2019-04-04T02:48:02.327Z,5.39
2019-04-04T02:49:13.060Z,5.38
2019-04-04T02:50:23.790Z,5.39
2019-04-04T02:51:35.025Z,5.39
2019-04-04T02:52:46.794Z,5.38
2019-04-04T02:53:56.466Z,5.38
2019-04-04T02:55:07.201Z,5.38
2019-04-04T02:56:17.923Z,5.38
2019-04-04T02:57:28.645Z,5.37
2019-04-04T02:58:39.366Z,5.37
2019-04-04T02:59:52.800Z,5.36
2019-04-04T03:01:00.860Z,5.34
2019-04-04T03:02:11.572Z,5.32
2019-04-04T03:03:22.296Z,5.31
2019-04-04T03:04:33.015Z,5.29
2019-04-04T03:05:43.749Z,5.28
2019-04-04T03:06:57.128Z,5.27
2019-04-04T03:08:05.214Z,5.25
2019-04-04T03:09:16.002Z,5.24
2019-04-04T03:10:27.713Z,5.23
2019-04-04T03:11:38.451Z,5.22
2019-04-04T03:12:49.178Z,5.19
2019-04-04T03:14:03.432Z,5.18
2019-04-04T03:15:11.221Z,5.18
2019-04-04T03:16:22.578Z,5.16
2019-04-04T03:17:32.797Z,5.17
2019-04-04T03:18:43.398Z,5.16
2019-04-04T03:19:54.132Z,5.16
2019-04-04T03:21:04.877Z,5.15
2019-04-04T03:22:15.605Z,5.16
2019-04-04T03:23:26.326Z,5.15
2019-04-04T03:24:40.274Z,5.15
2019-04-04T03:25:48.250Z,5.15
2019-04-04T03:26:58.504Z,5.14
2019-04-04T03:28:09.219Z,5.13
2019-04-04T03:29:19.942Z,5.13
2019-04-04T03:30:30.663Z,5.13
2019-04-04T03:31:41.453Z,5.12
2019-04-04T03:32:54.717Z,5.12
2019-04-04T03:34:08.932Z,5.12
2019-04-04T03:35:13.575Z,5.11
2019-04-04T03:36:24.306Z,5.11
2019-04-04T03:37:35.025Z,5.10
2019-04-04T03:38:47.170Z,5.10
2019-04-04T03:39:56.473Z,5.09
2019-04-04T03:41:07.204Z,5.10
2019-04-04T03:42:17.925Z,5.08
2019-04-04T03:43:28.693Z,5.08
2019-04-04T03:44:39.399Z,5.07
2019-04-04T03:45:50.145Z,5.07
2019-04-04T03:47:00.870Z,5.06
2019-04-04T03:48:17.094Z,5.04
2019-04-04T03:49:24.401Z,5.06
2019-04-04T03:50:33.036Z,5.06
2019-04-04T03:51:43.855Z,5.06
2019-04-04T03:52:54.485Z,5.06
2019-04-04T03:54:06.206Z,5.07
2019-04-04T03:55:16.933Z,5.07
2019-04-04T03:56:27.658Z,5.05
2019-04-04T03:57:38.388Z,5.07
2019-04-04T03:58:49.104Z,5.07
2019-04-04T03:59:59.822Z,5.06
2019-04-04T04:01:13.199Z,5.05
2019-04-04T04:02:21.779Z,5.04
2019-04-04T04:03:32.494Z,5.04
2019-04-04T04:04:43.210Z,5.03
2019-04-04T04:05:53.934Z,5.03
2019-04-04T04:07:04.671Z,5.02
2019-04-04T04:08:15.387Z,5.02
2019-04-04T04:09:27.170Z,5.02
2019-04-04T04:10:36.837Z,5.02
2019-04-04T04:11:47.561Z,5.01
2019-04-04T04:12:58.290Z,5.01
2019-04-04T04:14:09.015Z,5.01
2019-04-04T04:15:19.735Z,5.00
2019-04-04T04:16:34.955Z,4.99
2019-04-04T04:17:45.244Z,4.97
2019-04-04T04:18:54.421Z,4.94
2019-04-04T04:20:04.844Z,4.92
2019-04-04T04:21:14.678Z,4.91
2019-04-04T04:22:25.914Z,4.89
2019-04-04T04:23:36.645Z,4.88
2019-04-04T04:24:47.371Z,4.87
2019-04-04T04:25:58.090Z,4.86
2019-04-04T04:27:08.819Z,4.87
2019-04-04T04:29:30.806Z,4.85
2019-04-04T04:30:40.978Z,4.86
2019-04-04T04:31:51.706Z,4.89
2019-04-04T04:33:02.438Z,4.91
2019-04-04T04:34:13.697Z,4.91
2019-04-04T04:35:24.478Z,4.92
2019-04-04T04:36:35.216Z,4.95
2019-04-04T04:37:45.975Z,4.96
2019-04-04T04:39:00.004Z,4.97
2019-04-04T04:40:07.979Z,4.96
2019-04-04T04:41:20.434Z,4.95
2019-04-04T04:42:29.436Z,4.93
2019-04-04T04:43:40.177Z,4.92
2019-04-04T04:44:50.903Z,4.91
2019-04-04T04:46:01.619Z,4.90
2019-04-04T04:47:12.345Z,4.89
2019-04-04T04:48:25.920Z,4.87
2019-04-04T04:49:35.624Z,4.84
2019-04-04T04:50:44.996Z,4.82
2019-04-04T04:51:55.715Z,4.80
2019-04-04T04:53:07.382Z,4.79
2019-04-04T04:54:20.468Z,4.78
2019-04-04T04:55:29.342Z,4.76
2019-04-04T04:56:40.057Z,4.74
2019-04-04T04:57:50.780Z,4.74
2019-04-04T04:59:01.497Z,4.72
2019-04-04T05:00:13.896Z,4.70
2019-04-04T05:01:22.947Z,4.70
2019-04-04T05:02:33.694Z,4.70
2019-04-04T05:03:44.917Z,4.70
2019-04-04T05:04:57.281Z,4.70
2019-04-04T05:06:06.376Z,4.69
2019-04-04T05:07:18.100Z,4.69
2019-04-04T05:08:28.829Z,4.69
2019-04-04T05:09:39.572Z,4.70
2019-04-04T05:10:50.786Z,4.70
2019-04-04T05:12:01.503Z,4.71
2019-04-04T05:13:12.227Z,4.73
2019-04-04T05:14:22.956Z,4.73
2019-04-04T05:15:33.706Z,4.73
2019-04-04T05:16:44.443Z,4.74
2019-04-04T05:17:55.668Z,4.75
2019-04-04T05:19:06.399Z,4.76
2019-04-04T05:20:17.113Z,4.77
2019-04-04T05:21:28.921Z,4.78
2019-04-04T05:22:40.028Z,4.78
2019-04-04T05:23:49.777Z,4.79
2019-04-04T05:25:08.134Z,4.80
2019-04-04T05:26:11.699Z,4.82
2019-04-04T05:27:22.423Z,4.85
2019-04-04T05:28:33.143Z,4.87
2019-04-04T05:29:44.989Z,4.90
2019-04-04T05:30:54.596Z,4.92
2019-04-04T05:32:05.325Z,4.94
2019-04-04T05:33:16.554Z,4.97
2019-04-04T05:34:28.307Z,5.00
2019-04-04T05:35:38.006Z,5.02
2019-04-04T05:36:48.733Z,5.04
2019-04-04T05:37:59.459Z,5.05
2019-04-04T05:39:10.198Z,5.08
2019-04-04T05:40:23.254Z,5.09
2019-04-04T05:41:31.648Z,5.10
2019-04-04T05:42:42.369Z,5.11
2019-04-04T05:43:53.100Z,5.12
2019-04-04T05:45:03.830Z,5.14
2019-04-04T05:46:14.575Z,5.14
2019-04-04T05:47:25.291Z,5.14
2019-04-04T05:48:36.015Z,5.13
2019-04-04T05:49:46.741Z,5.13
2019-04-04T05:50:57.471Z,5.14
2019-04-04T05:52:09.202Z,5.15
2019-04-04T05:53:21.445Z,5.15
2019-04-04T05:54:29.677Z,5.16
2019-04-04T05:55:41.842Z,5.18
2019-04-04T05:56:51.636Z,5.19
2019-04-04T05:58:02.437Z,5.19
2019-04-04T05:59:13.584Z,5.20
2019-04-04T06:00:26.969Z,5.21
2019-04-04T06:01:35.951Z,5.22
2019-04-04T06:02:45.774Z,5.23
2019-04-04T06:03:56.534Z,5.24
2019-04-04T06:05:07.227Z,5.23
2019-04-04T06:06:17.953Z,5.24
2019-04-04T06:07:28.669Z,5.26
2019-04-04T06:08:43.118Z,5.27
2019-04-04T06:09:50.131Z,5.30
2019-04-04T06:11:00.865Z,5.32
2019-04-04T06:12:11.597Z,5.34
2019-04-04T06:13:22.393Z,5.36
2019-04-04T06:14:33.061Z,5.37
2019-04-04T06:15:43.785Z,5.37
2019-04-04T06:16:54.513Z,5.37
2019-04-04T06:18:05.239Z,5.37
2019-04-04T06:19:15.988Z,5.37
2019-04-04T06:20:27.217Z,5.40
2019-04-04T06:21:37.942Z,5.40
2019-04-04T06:22:50.026Z,5.42
2019-04-04T06:23:59.418Z,5.43
2019-04-04T06:25:10.634Z,5.45
2019-04-04T06:26:21.888Z,5.45
2019-04-04T06:27:33.117Z,5.47
2019-04-04T06:28:44.390Z,5.47
2019-04-04T06:29:54.586Z,5.50
2019-04-04T06:31:05.331Z,5.52
2019-04-04T06:32:16.056Z,5.56
2019-04-04T06:33:26.802Z,5.60
2019-04-04T06:34:37.539Z,5.65
2019-04-04T06:35:48.269Z,5.69
2019-04-04T06:36:59.008Z,5.70
2019-04-04T06:38:09.754Z,5.72
2019-04-04T06:39:20.498Z,5.75
2019-04-04T06:40:31.232Z,5.76
2019-04-04T06:41:41.962Z,5.77
2019-04-04T06:42:52.693Z,5.79
2019-04-04T06:44:03.442Z,5.81
2019-04-04T06:45:15.429Z,5.86
2019-04-04T06:46:24.924Z,5.93
2019-04-04T06:47:35.660Z,6.01
2019-04-04T06:48:46.402Z,6.07
2019-04-04T06:49:57.155Z,6.13
2019-04-04T06:51:07.892Z,6.15
2019-04-04T06:52:19.259Z,6.16
2019-04-04T06:53:29.466Z,6.16
2019-04-04T06:54:40.226Z,6.16
2019-04-04T06:55:50.962Z,6.16
2019-04-04T06:57:03.905Z,6.17
2019-04-04T06:58:12.947Z,6.18
2019-04-04T06:59:23.709Z,6.17
2019-04-04T07:00:34.445Z,6.17
2019-04-04T07:01:45.191Z,6.16
2019-04-04T07:02:56.284Z,6.16
2019-04-04T07:04:06.683Z,6.16
2019-04-04T07:05:17.431Z,6.16
2019-04-04T07:06:28.185Z,6.15
2019-04-04T07:07:38.925Z,6.14
2019-04-04T07:08:49.675Z,6.12
2019-04-04T07:10:00.505Z,6.10
2019-04-04T07:11:21.073Z,6.09
2019-04-04T07:12:28.103Z,6.10
2019-04-04T07:13:42.425Z,6.11
2019-04-04T07:14:45.861Z,6.13
2019-04-04T07:16:06.075Z,6.15
2019-04-04T07:17:08.409Z,6.13
2019-04-04T07:18:15.935Z,6.12
2019-04-04T07:19:26.682Z,6.12
2019-04-04T07:20:37.430Z,6.12
2019-04-04T07:21:49.177Z,6.11
2019-04-04T07:22:59.478Z,6.11
2019-04-04T07:24:10.215Z,6.11
2019-04-04T07:25:20.977Z,6.10
2019-04-04T07:26:31.733Z,6.09
2019-04-04T07:27:42.485Z,6.07
2019-04-04T07:28:54.000Z,6.06
2019-04-04T07:30:03.966Z,6.05
2019-04-04T07:31:16.204Z,6.03
2019-04-04T07:32:25.460Z,6.02
2019-04-04T07:33:36.198Z,6.03
2019-04-04T07:34:46.956Z,6.04
2019-04-04T07:35:57.678Z,6.05
2019-04-04T07:37:08.426Z,6.06
2019-04-04T07:38:19.173Z,6.05
2019-04-04T07:39:32.130Z,6.06
2019-04-04T07:40:40.653Z,6.06
2019-04-04T07:41:51.395Z,6.05
2019-04-04T07:43:02.647Z,6.04
2019-04-04T07:44:13.476Z,6.04
2019-04-04T07:45:26.686Z,6.03
2019-04-04T07:46:34.986Z,6.03
2019-04-04T07:47:47.439Z,6.03
2019-04-04T07:48:56.974Z,6.04
2019-04-04T07:50:07.728Z,6.04
2019-04-04T07:51:18.964Z,6.04
2019-04-04T07:52:32.838Z,6.04
2019-04-04T07:53:40.967Z,6.03
2019-04-04T07:54:51.714Z,6.02
2019-04-04T07:56:02.456Z,6.03
2019-04-04T07:57:13.707Z,6.04
2019-04-04T07:58:24.452Z,6.06
2019-04-04T07:59:35.200Z,6.08
2019-04-04T08:00:45.937Z,6.09
2019-04-04T08:01:56.691Z,6.10
2019-04-04T08:03:07.432Z,6.12
2019-04-04T08:04:18.171Z,6.14
2019-04-04T08:05:28.918Z,6.17
2019-04-04T08:06:39.672Z,6.21
2019-04-04T08:07:50.411Z,6.25
2019-04-04T08:09:01.169Z,6.29
2019-04-04T08:10:20.366Z,6.33
2019-04-04T08:11:22.662Z,6.36
2019-04-04T08:12:33.415Z,6.38
2019-04-04T08:13:44.157Z,6.38
2019-04-04T08:14:54.909Z,6.39
2019-04-04T08:16:05.665Z,6.40
2019-04-04T08:17:18.880Z,6.41
2019-04-04T08:18:27.647Z,6.42
2019-04-04T08:19:38.405Z,6.43
2019-04-04T08:20:49.155Z,6.44
2019-04-04T08:22:00.466Z,6.47
2019-04-04T08:23:11.161Z,6.50
2019-04-04T08:24:21.909Z,6.53
2019-04-04T08:25:33.168Z,6.54
2019-04-04T08:26:43.927Z,6.56
2019-04-04T08:27:54.693Z,6.57
2019-04-04T08:29:05.943Z,6.58
2019-04-04T08:30:17.698Z,6.59
2019-04-04T08:31:28.455Z,6.60
2019-04-04T08:32:39.714Z,6.61
2019-04-04T08:33:50.469Z,6.63
2019-04-04T08:35:01.719Z,6.66
2019-04-04T08:36:12.979Z,6.70
2019-04-04T08:37:24.262Z,6.75
2019-04-04T08:38:35.020Z,6.78
2019-04-04T08:39:45.777Z,6.81
2019-04-04T08:40:57.036Z,6.84
2019-04-04T08:42:07.806Z,6.86
2019-04-04T08:43:18.575Z,6.88
2019-04-04T08:44:29.325Z,6.90
2019-04-04T08:45:40.094Z,6.92
2019-04-04T08:46:50.837Z,6.96
2019-04-04T08:48:01.607Z,6.99
2019-04-04T08:49:13.317Z,7.02
2019-04-04T08:50:24.100Z,7.03
2019-04-04T08:51:35.339Z,7.01
2019-04-04T08:52:46.112Z,7.00
2019-04-04T08:53:56.879Z,6.99
2019-04-04T08:55:07.645Z,7.01
2019-04-04T08:56:18.417Z,7.02
2019-04-04T08:57:29.674Z,7.02
2019-04-04T08:58:40.507Z,7.01
2019-04-04T08:59:51.209Z,6.99
2019-04-04T09:01:02.480Z,6.99
2019-04-04T09:02:13.241Z,6.95
2019-04-04T09:03:24.316Z,6.91
2019-04-04T09:04:35.093Z,6.89
2019-04-04T09:05:45.860Z,6.89
2019-04-04T09:06:56.615Z,6.91
2019-04-04T09:08:07.386Z,6.97
2019-04-04T09:09:18.166Z,7.04
2019-04-04T09:10:28.925Z,7.11
2019-04-04T09:11:39.698Z,7.17
2019-04-04T09:12:50.466Z,7.20
2019-04-04T09:14:01.237Z,7.22
2019-04-04T09:15:12.008Z,7.22
2019-04-04T09:16:23.278Z,7.23
2019-04-04T09:17:34.049Z,7.23
2019-04-04T09:18:44.827Z,7.23
2019-04-04T09:19:55.592Z,7.22
2019-04-04T09:21:06.468Z,7.19
2019-04-04T09:22:17.233Z,7.17
2019-04-04T09:23:28.019Z,7.16
2019-04-04T09:24:38.795Z,7.17
2019-04-04T09:25:49.870Z,7.20
2019-04-04T09:27:01.140Z,7.24
2019-04-04T09:28:11.910Z,7.29
2019-04-04T09:29:22.681Z,7.34
2019-04-04T09:30:33.460Z,7.41
2019-04-04T09:31:44.428Z,7.46
2019-04-04T09:32:55.205Z,7.52
2019-04-04T09:34:05.981Z,7.53
2019-04-04T09:35:16.756Z,7.53
2019-04-04T09:36:27.582Z,7.52
2019-04-04T09:37:38.309Z,7.51
2019-04-04T09:38:49.087Z,7.50
2019-04-04T09:39:59.872Z,7.52
2019-04-04T09:41:10.650Z,7.54
2019-04-04T09:42:21.431Z,7.55
2019-04-04T09:43:32.717Z,7.56
2019-04-04T09:44:43.473Z,7.58
2019-04-04T09:45:54.247Z,7.60
2019-04-04T09:47:05.899Z,7.64
2019-04-04T09:48:15.810Z,7.72
2019-04-04T09:49:26.582Z,7.80
2019-04-04T09:50:37.376Z,7.87
2019-04-04T09:51:48.360Z,7.93
2019-04-04T09:52:59.146Z,8.01
2019-04-04T09:54:09.935Z,8.09
2019-04-04T09:55:20.718Z,8.18
2019-04-04T09:56:31.499Z,8.31
2019-04-04T09:57:42.290Z,8.41
2019-04-04T09:58:54.872Z,8.47
2019-04-04T10:00:03.907Z,8.53
2019-04-04T10:01:14.707Z,8.55
2019-04-04T10:02:25.491Z,8.54
2019-04-04T10:03:36.297Z,8.53
2019-04-04T10:04:47.097Z,8.53
2019-04-04T10:05:57.898Z,8.54
2019-04-04T10:07:08.692Z,8.56
2019-04-04T10:08:19.486Z,8.58
2019-04-04T10:09:30.299Z,8.61
2019-04-04T10:10:41.105Z,8.63
2019-04-04T10:11:51.904Z,8.65
2019-04-04T10:13:02.708Z,8.61
2019-04-04T10:14:13.496Z,8.58
2019-04-04T10:15:24.296Z,8.58
2019-04-04T10:16:35.088Z,8.64
2019-04-04T10:17:45.893Z,8.73
2019-04-04T10:18:56.690Z,8.86
2019-04-04T10:20:07.495Z,8.96
2019-04-04T10:21:18.303Z,9.00
2019-04-04T10:22:29.104Z,9.01
2019-04-04T10:23:39.982Z,9.00
2019-04-04T10:24:50.734Z,8.97
2019-04-04T10:26:01.526Z,8.92
2019-04-04T10:27:12.330Z,8.88
2019-04-04T10:28:23.543Z,8.84
2019-04-04T10:29:33.956Z,8.78
2019-04-04T10:30:44.753Z,8.76
2019-04-04T10:31:56.022Z,8.74
2019-04-04T10:33:06.829Z,8.71
2019-04-04T10:34:17.638Z,8.68
2019-04-04T10:35:28.457Z,8.62
2019-04-04T10:36:39.272Z,8.58
2019-04-04T10:37:51.067Z,8.53
2019-04-04T10:39:01.888Z,8.48
2019-04-04T10:40:12.701Z,8.42
2019-04-04T10:41:23.503Z,8.36
2019-04-04T10:42:34.304Z,8.30
2019-04-04T10:43:45.109Z,8.25
2019-04-04T10:44:55.905Z,8.23
2019-04-04T10:46:06.720Z,8.22
2019-04-04T10:47:17.516Z,8.20
2019-04-04T10:48:28.318Z,8.19
2019-04-04T10:49:39.118Z,8.14
2019-04-04T10:50:49.931Z,8.12
2019-04-04T10:52:00.756Z,8.11
2019-04-04T10:53:11.558Z,8.10
2019-04-04T10:54:22.371Z,8.09
2019-04-04T10:55:33.169Z,8.09
2019-04-04T10:56:43.978Z,8.09
2019-04-04T10:57:54.769Z,8.09
2019-04-04T10:59:05.576Z,8.11
2019-04-04T11:00:16.460Z,8.12
2019-04-04T11:01:27.292Z,8.14
2019-04-04T11:02:38.082Z,8.13
2019-04-04T11:03:48.866Z,8.11
2019-04-04T11:04:59.667Z,8.10
2019-04-04T11:06:10.481Z,8.08
2019-04-04T11:07:21.293Z,8.08
2019-04-04T11:08:32.082Z,8.10
2019-04-04T11:09:42.876Z,8.11
2019-04-04T11:10:53.673Z,8.12
2019-04-04T11:12:04.474Z,8.14
2019-04-04T11:13:15.289Z,8.15
2019-04-04T11:14:26.085Z,8.18
2019-04-04T11:15:36.875Z,8.21
2019-04-04T11:16:48.684Z,8.25
2019-04-04T11:17:59.504Z,8.31
2019-04-04T11:19:10.304Z,8.36
2019-04-04T11:20:21.108Z,8.41
2019-04-04T11:21:31.908Z,8.45
2019-04-04T11:22:42.730Z,8.50
2019-04-04T11:23:53.512Z,8.53
2019-04-04T11:25:04.327Z,8.58
2019-04-04T11:26:15.110Z,8.63
2019-04-04T11:27:25.909Z,8.67
2019-04-04T11:28:36.728Z,8.71
2019-04-04T11:29:47.515Z,8.74
2019-04-04T11:30:58.321Z,8.76
2019-04-04T11:32:09.131Z,8.79
2019-04-04T11:33:19.930Z,8.80
2019-04-04T11:34:30.725Z,8.80
2019-04-04T11:35:41.544Z,8.79
2019-04-04T11:36:52.356Z,8.80
2019-04-04T11:38:03.173Z,8.80
2019-04-04T11:39:13.976Z,8.83
2019-04-04T11:40:24.789Z,8.84
2019-04-04T11:41:35.824Z,8.86
2019-04-04T11:42:46.634Z,8.87
2019-04-04T11:43:57.438Z,8.88
2019-04-04T11:45:08.243Z,8.87
2019-04-04T11:46:19.092Z,8.88
2019-04-04T11:47:29.902Z,8.88
2019-04-04T11:48:40.715Z,8.87
2019-04-04T11:49:51.516Z,8.88
2019-04-04T11:51:02.334Z,8.92
2019-04-04T11:52:13.149Z,8.98
2019-04-04T11:53:23.963Z,9.03
2019-04-04T11:54:34.766Z,9.10
2019-04-04T11:55:45.580Z,9.16
2019-04-04T11:56:56.391Z,9.18
2019-04-04T11:58:07.217Z,9.22
2019-04-04T11:59:18.032Z,9.27
2019-04-04T12:00:28.849Z,9.33
2019-04-04T12:01:39.784Z,9.39
2019-04-04T12:02:50.611Z,9.40
2019-04-04T12:04:01.432Z,9.37
2019-04-04T12:05:12.245Z,9.33
2019-04-04T12:06:23.067Z,9.29
2019-04-04T12:07:33.883Z,9.24
2019-04-04T12:08:44.704Z,9.19
2019-04-04T12:10:06.688Z,9.10
2019-04-04T12:11:06.340Z,9.00
2019-04-04T12:12:17.173Z,8.91
2019-04-04T12:13:27.994Z,8.84
2019-04-04T12:14:38.800Z,8.77
2019-04-04T12:15:49.616Z,8.72
2019-04-04T12:17:00.432Z,8.67
2019-04-04T12:18:11.295Z,8.63
2019-04-04T12:19:22.101Z,8.58
2019-04-04T12:20:32.916Z,8.54
2019-04-04T12:21:43.725Z,8.50
2019-04-04T12:22:54.557Z,8.49
2019-04-04T12:24:05.366Z,8.48
2019-04-04T12:25:16.162Z,8.47
2019-04-04T12:26:26.967Z,8.45
2019-04-04T12:27:37.861Z,8.44
2019-04-04T12:28:48.596Z,8.40
2019-04-04T12:29:59.393Z,8.37
2019-04-04T12:31:10.200Z,8.35
2019-04-04T12:32:21.034Z,8.35
2019-04-04T12:33:31.847Z,8.35
2019-04-04T12:34:42.683Z,8.38
2019-04-04T12:35:53.530Z,8.40
2019-04-04T12:37:04.274Z,8.40
2019-04-04T12:38:15.082Z,8.42
2019-04-04T12:39:25.904Z,8.40
2019-04-04T12:40:37.148Z,8.38
2019-04-04T12:41:47.964Z,8.33
2019-04-04T12:42:58.761Z,8.31
2019-04-04T12:44:09.579Z,8.30
2019-04-04T12:45:20.481Z,8.29
2019-04-04T12:46:31.284Z,8.26
2019-04-04T12:47:42.081Z,8.23
2019-04-04T12:48:52.888Z,8.21
2019-04-04T12:50:03.690Z,8.19
2019-04-04T12:51:14.486Z,8.18
2019-04-04T12:52:25.297Z,8.14
2019-04-04T12:53:37.112Z,8.10
2019-04-04T12:54:47.915Z,8.08
2019-04-04T12:55:58.713Z,8.07
2019-04-04T12:57:09.511Z,8.07
2019-04-04T12:58:20.304Z,8.08
2019-04-04T12:59:31.124Z,8.11
2019-04-04T13:00:41.925Z,8.15
2019-04-04T13:01:52.730Z,8.20
2019-04-04T13:03:03.526Z,8.25
2019-04-04T13:04:14.345Z,8.27
2019-04-04T13:05:25.151Z,8.27
2019-04-04T13:06:35.957Z,8.27
2019-04-04T13:07:46.756Z,8.26
2019-04-04T13:08:57.562Z,8.28
2019-04-04T13:10:11.810Z,8.28
2019-04-04T13:11:19.266Z,8.28
2019-04-04T13:12:30.073Z,8.28
2019-04-04T13:13:40.871Z,8.27
2019-04-04T13:14:51.684Z,8.23
2019-04-04T13:16:02.491Z,8.20
2019-04-04T13:17:13.295Z,8.18
2019-04-04T13:18:24.110Z,8.17
2019-04-04T13:19:34.932Z,8.14
2019-04-04T13:20:45.742Z,8.12
2019-04-04T13:21:56.548Z,8.10
2019-04-04T13:23:07.351Z,8.10
2019-04-04T13:24:18.153Z,8.11
2019-04-04T13:25:28.957Z,8.11
2019-04-04T13:26:39.753Z,8.12
2019-04-04T13:27:50.557Z,8.11
2019-04-04T13:29:01.359Z,8.11
2019-04-04T13:30:12.168Z,8.09
2019-04-04T13:31:22.970Z,8.06
2019-04-04T13:32:33.775Z,8.05
2019-04-04T13:33:44.577Z,8.02
2019-04-04T13:34:59.561Z,8.00
2019-04-04T13:36:06.178Z,7.96
2019-04-04T13:37:16.985Z,7.95
2019-04-04T13:38:28.298Z,7.94
2019-04-04T13:39:39.106Z,7.93
2019-04-04T13:40:49.924Z,7.92
2019-04-04T13:42:00.741Z,7.92
2019-04-04T13:43:11.537Z,7.90
2019-04-04T13:44:23.576Z,7.85
2019-04-04T13:45:33.141Z,7.81
2019-04-04T13:46:43.943Z,7.78
2019-04-04T13:47:54.737Z,7.76
2019-04-04T13:49:05.534Z,7.72
2019-04-04T13:50:19.445Z,7.71
2019-04-04T13:51:27.455Z,7.69
2019-04-04T13:52:38.249Z,7.68
2019-04-04T13:53:49.044Z,7.67
2019-04-04T13:54:59.840Z,7.66
2019-04-04T13:56:10.650Z,7.65
2019-04-04T13:57:21.450Z,7.65
2019-04-04T13:58:32.244Z,7.66
2019-04-04T13:59:43.049Z,7.66
2019-04-04T14:00:53.846Z,7.68
2019-04-04T14:02:04.642Z,7.68
2019-04-04T14:03:15.427Z,7.69
2019-04-04T14:04:26.222Z,7.67
2019-04-04T14:05:37.211Z,7.66
2019-04-04T14:06:47.821Z,7.63
2019-04-04T14:08:00.752Z,7.60
2019-04-04T14:09:12.082Z,7.57
2019-04-04T14:10:20.195Z,7.55
2019-04-04T14:11:30.988Z,7.55
2019-04-04T14:12:41.784Z,7.56
2019-04-04T14:13:52.589Z,7.57
2019-04-04T14:15:03.386Z,7.59
2019-04-04T14:16:14.189Z,7.62
2019-04-04T14:17:24.982Z,7.66
2019-04-04T14:18:39.807Z,7.70
2019-04-04T14:19:46.567Z,7.71
2019-04-04T14:21:03.652Z,7.73
2019-04-04T14:22:08.331Z,7.74
2019-04-04T14:23:19.506Z,7.73
2019-04-04T14:24:29.865Z,7.71
2019-04-04T14:25:40.662Z,7.67
2019-04-04T14:26:51.491Z,7.62
2019-04-04T14:28:02.274Z,7.59
2019-04-04T14:29:26.281Z,7.55
2019-04-04T14:30:23.897Z,7.53
2019-04-04T14:31:34.737Z,7.50
2019-04-04T14:32:45.530Z,7.49
2019-04-04T14:33:56.326Z,7.49
2019-04-04T14:35:07.130Z,7.48
2019-04-04T14:36:17.918Z,7.48
2019-04-04T14:37:28.717Z,7.48
2019-04-04T14:38:39.510Z,7.48
2019-04-04T14:39:50.300Z,7.49
2019-04-04T14:41:10.466Z,7.53
2019-04-04T14:42:11.883Z,7.59
2019-04-04T14:43:22.668Z,7.64
2019-04-04T14:44:35.746Z,7.71
2019-04-04T14:45:44.260Z,7.75
2019-04-04T14:46:55.050Z,7.77
2019-04-04T14:48:05.853Z,7.77
2019-04-04T14:49:16.651Z,7.78
2019-04-04T14:50:28.223Z,7.79
2019-04-04T14:51:38.230Z,7.81
2019-04-04T14:52:51.221Z,7.85
2019-04-04T14:53:59.822Z,7.90
2019-04-04T14:55:10.617Z,7.96
2019-04-04T14:56:21.424Z,8.06
2019-04-04T14:57:32.228Z,8.15
2019-04-04T14:58:43.023Z,8.28
2019-04-04T14:59:53.821Z,8.39
2019-04-04T15:01:04.625Z,8.51
2019-04-04T15:02:15.427Z,8.60
2019-04-04T15:03:26.238Z,8.67
2019-04-04T15:04:37.051Z,8.71
2019-04-04T15:05:47.854Z,8.70
2019-04-04T15:06:58.667Z,8.67
2019-04-04T15:08:09.485Z,8.63
2019-04-04T15:09:20.295Z,8.58
2019-04-04T15:10:31.100Z,8.55
2019-04-04T15:11:41.907Z,8.54
2019-04-04T15:12:52.718Z,8.50
2019-04-04T15:14:03.535Z,8.44
2019-04-04T15:15:14.332Z,8.36
2019-04-04T15:16:25.140Z,8.26
2019-04-04T15:17:35.938Z,8.17
2019-04-04T15:18:46.743Z,8.09
2019-04-04T15:19:57.754Z,8.00
2019-04-04T15:21:08.553Z,7.90
2019-04-04T15:22:19.838Z,7.83
2019-04-04T15:23:30.637Z,7.76
2019-04-04T15:24:41.451Z,7.71
2019-04-04T15:25:52.243Z,7.68
2019-04-04T15:27:03.035Z,7.64
2019-04-04T15:28:13.844Z,7.62
2019-04-04T15:29:24.639Z,7.60
2019-04-04T15:30:35.430Z,7.58
2019-04-04T15:31:46.228Z,7.52
2019-04-04T15:32:57.021Z,7.48
2019-04-04T15:34:07.824Z,7.43
2019-04-04T15:35:18.622Z,7.39
2019-04-04T15:36:29.399Z,7.35
2019-04-04T15:37:40.181Z,7.32
2019-04-04T15:38:50.983Z,7.28
2019-04-04T15:40:02.284Z,7.26
2019-04-04T15:41:13.065Z,7.24
2019-04-04T15:42:23.850Z,7.23
2019-04-04T15:43:35.642Z,7.22